sensor_id;sensor_type;location;lat;lon;timestamp;P1;durP1;ratioP1;P2;durP2;ratioP2
1957;SDS011;979;51.076;13.748;2023-06-26T00:00:11;25.47;;;23.87;;
1957;SDS011;979;51.076;13.748;2023-06-26T00:02:40;26.23;;;24.50;;
1957;SDS011;979;51.076;13.748;2023-06-26T00:05:08;25.73;;;24.33;;
1957;SDS011;979;51.076;13.748;2023-06-26T00:07:39;25.93;;;24.43;;
1957;SDS011;979;51.076;13.748;2023-06-26T00:10:08;25.40;;;24.00;;
1957;SDS011;979;51.076;13.748;2023-06-26T00:12:37;25.57;;;24.17;;
1957;SDS011;979;51.076;13.748;2023-06-26T00:15:06;25.50;;;24.00;;
1957;SDS011;979;51.076;13.748;2023-06-26T00:17:35;25.00;;;23.50;;
1957;SDS011;979;51.076;13.748;2023-06-26T00:20:04;26.13;;;24.60;;
1957;SDS011;979;51.076;13.748;2023-06-26T00:22:39;26.67;;;25.00;;
1957;SDS011;979;51.076;13.748;2023-06-26T00:25:09;15.70;;;15.30;;
1957;SDS011;979;51.076;13.748;2023-06-26T00:27:37;15.60;;;15.20;;
1957;SDS011;979;51.076;13.748;2023-06-26T00:30:06;15.83;;;15.33;;
1957;SDS011;979;51.076;13.748;2023-06-26T00:32:35;16.00;;;15.50;;
1957;SDS011;979;51.076;13.748;2023-06-26T00:35:05;16.00;;;15.50;;
1957;SDS011;979;51.076;13.748;2023-06-26T00:37:33;16.13;;;15.63;;
1957;SDS011;979;51.076;13.748;2023-06-26T00:40:10;16.50;;;16.00;;
1957;SDS011;979;51.076;13.748;2023-06-26T00:42:38;16.40;;;15.90;;
1957;SDS011;979;51.076;13.748;2023-06-26T00:45:32;16.30;;;15.80;;
1957;SDS011;979;51.076;13.748;2023-06-26T00:48:09;16.30;;;15.80;;
1957;SDS011;979;51.076;13.748;2023-06-26T00:50:39;16.40;;;15.90;;
1957;SDS011;979;51.076;13.748;2023-06-26T00:53:09;16.60;;;16.10;;
1957;SDS011;979;51.076;13.748;2023-06-26T00:55:40;16.60;;;16.10;;
1957;SDS011;979;51.076;13.748;2023-06-26T00:58:08;16.70;;;16.20;;
1957;SDS011;979;51.076;13.748;2023-06-26T01:00:37;16.90;;;16.40;;
1957;SDS011;979;51.076;13.748;2023-06-26T01:03:08;15.80;;;15.40;;
1957;SDS011;979;51.076;13.748;2023-06-26T01:05:39;16.70;;;16.20;;
1957;SDS011;979;51.076;13.748;2023-06-26T01:08:12;16.60;;;16.10;;
1957;SDS011;979;51.076;13.748;2023-06-26T01:10:42;16.43;;;15.93;;
1957;SDS011;979;51.076;13.748;2023-06-26T01:13:11;16.50;;;16.00;;
1957;SDS011;979;51.076;13.748;2023-06-26T01:15:41;16.43;;;15.93;;
1957;SDS011;979;51.076;13.748;2023-06-26T01:18:11;16.60;;;16.10;;
1957;SDS011;979;51.076;13.748;2023-06-26T01:20:44;16.50;;;16.00;;
1957;SDS011;979;51.076;13.748;2023-06-26T01:23:14;16.60;;;16.10;;
1957;SDS011;979;51.076;13.748;2023-06-26T01:25:54;16.50;;;16.00;;
1957;SDS011;979;51.076;13.748;2023-06-26T01:28:35;16.40;;;15.90;;
1957;SDS011;979;51.076;13.748;2023-06-26T01:31:08;16.30;;;15.80;;
1957;SDS011;979;51.076;13.748;2023-06-26T01:33:38;16.57;;;16.07;;
1957;SDS011;979;51.076;13.748;2023-06-26T01:36:07;16.47;;;15.97;;
1957;SDS011;979;51.076;13.748;2023-06-26T01:38:36;16.50;;;16.00;;
1957;SDS011;979;51.076;13.748;2023-06-26T01:41:08;16.50;;;16.00;;
1957;SDS011;979;51.076;13.748;2023-06-26T01:43:41;16.77;;;16.27;;
1957;SDS011;979;51.076;13.748;2023-06-26T01:46:23;16.70;;;16.20;;
1957;SDS011;979;51.076;13.748;2023-06-26T01:48:55;16.23;;;15.73;;
1957;SDS011;979;51.076;13.748;2023-06-26T01:51:31;16.67;;;16.17;;
1957;SDS011;979;51.076;13.748;2023-06-26T01:54:03;16.53;;;16.03;;
1957;SDS011;979;51.076;13.748;2023-06-26T01:56:38;16.40;;;15.90;;
1957;SDS011;979;51.076;13.748;2023-06-26T01:59:07;16.27;;;15.77;;
1957;SDS011;979;51.076;13.748;2023-06-26T02:01:38;16.13;;;15.63;;
1957;SDS011;979;51.076;13.748;2023-06-26T02:04:06;16.23;;;15.73;;
1957;SDS011;979;51.076;13.748;2023-06-26T02:06:35;16.40;;;15.90;;
1957;SDS011;979;51.076;13.748;2023-06-26T02:09:03;16.20;;;15.70;;
1957;SDS011;979;51.076;13.748;2023-06-26T02:11:31;16.43;;;15.93;;
1957;SDS011;979;51.076;13.748;2023-06-26T02:14:01;16.40;;;15.90;;
1957;SDS011;979;51.076;13.748;2023-06-26T02:16:30;16.50;;;16.00;;
1957;SDS011;979;51.076;13.748;2023-06-26T02:18:59;16.20;;;15.70;;
1957;SDS011;979;51.076;13.748;2023-06-26T02:21:28;16.30;;;15.80;;
1957;SDS011;979;51.076;13.748;2023-06-26T02:23:56;16.40;;;15.90;;
1957;SDS011;979;51.076;13.748;2023-06-26T02:26:24;16.30;;;15.80;;
1957;SDS011;979;51.076;13.748;2023-06-26T02:28:53;15.83;;;15.33;;
1957;SDS011;979;51.076;13.748;2023-06-26T02:31:23;15.80;;;15.37;;
1957;SDS011;979;51.076;13.748;2023-06-26T02:33:54;15.80;;;15.40;;
1957;SDS011;979;51.076;13.748;2023-06-26T02:36:23;15.70;;;15.30;;
1957;SDS011;979;51.076;13.748;2023-06-26T02:38:53;16.03;;;15.53;;
1957;SDS011;979;51.076;13.748;2023-06-26T02:41:21;15.50;;;15.10;;
1957;SDS011;979;51.076;13.748;2023-06-26T02:43:50;15.80;;;15.40;;
1957;SDS011;979;51.076;13.748;2023-06-26T02:46:19;15.43;;;15.03;;
1957;SDS011;979;51.076;13.748;2023-06-26T02:48:49;15.50;;;15.10;;
1957;SDS011;979;51.076;13.748;2023-06-26T02:51:17;15.70;;;15.30;;
1957;SDS011;979;51.076;13.748;2023-06-26T02:53:46;15.30;;;14.90;;
1957;SDS011;979;51.076;13.748;2023-06-26T02:56:17;15.30;;;14.90;;
1957;SDS011;979;51.076;13.748;2023-06-26T02:58:45;15.40;;;15.00;;
1957;SDS011;979;51.076;13.748;2023-06-26T03:01:14;15.37;;;14.97;;
1957;SDS011;979;51.076;13.748;2023-06-26T03:03:44;15.17;;;14.77;;
1957;SDS011;979;51.076;13.748;2023-06-26T03:06:17;15.63;;;15.23;;
1957;SDS011;979;51.076;13.748;2023-06-26T03:08:48;15.30;;;14.90;;
1957;SDS011;979;51.076;13.748;2023-06-26T03:11:16;15.60;;;15.20;;
1957;SDS011;979;51.076;13.748;2023-06-26T03:13:45;18.90;;;17.83;;
1957;SDS011;979;51.076;13.748;2023-06-26T03:16:13;18.30;;;17.70;;
1957;SDS011;979;51.076;13.748;2023-06-26T03:18:42;15.63;;;15.23;;
1957;SDS011;979;51.076;13.748;2023-06-26T03:21:10;15.97;;;15.57;;
1957;SDS011;979;51.076;13.748;2023-06-26T03:23:40;15.60;;;15.20;;
1957;SDS011;979;51.076;13.748;2023-06-26T03:26:09;16.00;;;15.60;;
1957;SDS011;979;51.076;13.748;2023-06-26T03:28:38;15.80;;;15.40;;
1957;SDS011;979;51.076;13.748;2023-06-26T03:31:08;15.07;;;14.67;;
1957;SDS011;979;51.076;13.748;2023-06-26T03:33:37;15.60;;;15.20;;
1957;SDS011;979;51.076;13.748;2023-06-26T03:36:07;16.20;;;15.70;;
1957;SDS011;979;51.076;13.748;2023-06-26T03:38:36;15.80;;;15.40;;
1957;SDS011;979;51.076;13.748;2023-06-26T03:41:06;15.03;;;14.63;;
1957;SDS011;979;51.076;13.748;2023-06-26T03:43:34;15.50;;;15.10;;
1957;SDS011;979;51.076;13.748;2023-06-26T03:46:16;15.50;;;15.10;;
1957;SDS011;979;51.076;13.748;2023-06-26T03:48:46;15.27;;;14.87;;
1957;SDS011;979;51.076;13.748;2023-06-26T03:51:14;14.90;;;14.50;;
1957;SDS011;979;51.076;13.748;2023-06-26T03:53:43;15.37;;;14.97;;
1957;SDS011;979;51.076;13.748;2023-06-26T03:56:13;15.60;;;15.20;;
1957;SDS011;979;51.076;13.748;2023-06-26T03:58:42;15.20;;;14.80;;
1957;SDS011;979;51.076;13.748;2023-06-26T04:01:10;14.27;;;13.93;;
1957;SDS011;979;51.076;13.748;2023-06-26T04:03:39;14.20;;;13.90;;
1957;SDS011;979;51.076;13.748;2023-06-26T04:06:10;15.30;;;14.90;;
1957;SDS011;979;51.076;13.748;2023-06-26T04:08:39;14.60;;;14.20;;
1957;SDS011;979;51.076;13.748;2023-06-26T04:11:07;15.10;;;14.70;;
1957;SDS011;979;51.076;13.748;2023-06-26T04:13:37;13.90;;;13.60;;
1957;SDS011;979;51.076;13.748;2023-06-26T04:16:05;14.57;;;14.17;;
1957;SDS011;979;51.076;13.748;2023-06-26T04:18:34;14.80;;;14.40;;
1957;SDS011;979;51.076;13.748;2023-06-26T04:21:09;14.67;;;14.27;;
1957;SDS011;979;51.076;13.748;2023-06-26T04:23:40;14.30;;;13.97;;
1957;SDS011;979;51.076;13.748;2023-06-26T04:26:09;14.90;;;14.50;;
1957;SDS011;979;51.076;13.748;2023-06-26T04:28:41;14.60;;;14.20;;
1957;SDS011;979;51.076;13.748;2023-06-26T04:31:10;14.27;;;13.93;;
1957;SDS011;979;51.076;13.748;2023-06-26T04:33:38;14.10;;;13.80;;
1957;SDS011;979;51.076;13.748;2023-06-26T04:36:09;16.50;;;15.83;;
1957;SDS011;979;51.076;13.748;2023-06-26T04:38:37;14.30;;;14.00;;
1957;SDS011;979;51.076;13.748;2023-06-26T04:41:06;15.17;;;14.77;;
1957;SDS011;979;51.076;13.748;2023-06-26T04:43:34;15.10;;;14.70;;
1957;SDS011;979;51.076;13.748;2023-06-26T04:46:04;15.00;;;14.60;;
1957;SDS011;979;51.076;13.748;2023-06-26T04:48:33;15.13;;;14.73;;
1957;SDS011;979;51.076;13.748;2023-06-26T04:51:01;14.93;;;14.53;;
1957;SDS011;979;51.076;13.748;2023-06-26T04:53:29;14.40;;;14.10;;
1957;SDS011;979;51.076;13.748;2023-06-26T04:55:58;15.20;;;14.80;;
1957;SDS011;979;51.076;13.748;2023-06-26T04:58:27;15.53;;;15.13;;
1957;SDS011;979;51.076;13.748;2023-06-26T05:00:56;15.43;;;15.03;;
1957;SDS011;979;51.076;13.748;2023-06-26T05:03:29;15.67;;;15.27;;
1957;SDS011;979;51.076;13.748;2023-06-26T05:05:59;14.83;;;14.43;;
1957;SDS011;979;51.076;13.748;2023-06-26T05:08:35;15.20;;;14.80;;
1957;SDS011;979;51.076;13.748;2023-06-26T05:11:03;15.70;;;15.30;;
1957;SDS011;979;51.076;13.748;2023-06-26T05:13:31;15.70;;;15.30;;
1957;SDS011;979;51.076;13.748;2023-06-26T05:16:01;15.73;;;15.33;;
1957;SDS011;979;51.076;13.748;2023-06-26T05:18:41;16.40;;;16.00;;
1957;SDS011;979;51.076;13.748;2023-06-26T05:21:10;15.03;;;14.63;;
1957;SDS011;979;51.076;13.748;2023-06-26T05:23:40;16.20;;;15.80;;
1957;SDS011;979;51.076;13.748;2023-06-26T05:26:11;16.60;;;16.10;;
1957;SDS011;979;51.076;13.748;2023-06-26T05:28:43;17.63;;;17.03;;
1957;SDS011;979;51.076;13.748;2023-06-26T05:31:15;16.90;;;16.40;;
1957;SDS011;979;51.076;13.748;2023-06-26T05:33:45;16.57;;;16.07;;
1957;SDS011;979;51.076;13.748;2023-06-26T05:36:16;17.07;;;16.57;;
1957;SDS011;979;51.076;13.748;2023-06-26T05:38:46;16.40;;;15.90;;
1957;SDS011;979;51.076;13.748;2023-06-26T05:41:16;16.03;;;15.63;;
1957;SDS011;979;51.076;13.748;2023-06-26T05:43:45;16.50;;;16.00;;
1957;SDS011;979;51.076;13.748;2023-06-26T05:46:14;16.70;;;16.20;;
1957;SDS011;979;51.076;13.748;2023-06-26T05:48:42;16.30;;;15.80;;
1957;SDS011;979;51.076;13.748;2023-06-26T05:51:13;16.40;;;15.90;;
1957;SDS011;979;51.076;13.748;2023-06-26T05:53:42;16.10;;;15.70;;
1957;SDS011;979;51.076;13.748;2023-06-26T05:56:12;15.80;;;15.40;;
1957;SDS011;979;51.076;13.748;2023-06-26T05:58:43;15.33;;;14.93;;
1957;SDS011;979;51.076;13.748;2023-06-26T06:01:12;16.10;;;15.70;;
1957;SDS011;979;51.076;13.748;2023-06-26T06:03:41;16.00;;;15.60;;
1957;SDS011;979;51.076;13.748;2023-06-26T06:06:09;16.20;;;15.80;;
1957;SDS011;979;51.076;13.748;2023-06-26T06:08:40;16.07;;;15.67;;
1957;SDS011;979;51.076;13.748;2023-06-26T06:11:12;16.50;;;16.00;;
1957;SDS011;979;51.076;13.748;2023-06-26T06:13:42;15.97;;;15.57;;
1957;SDS011;979;51.076;13.748;2023-06-26T06:16:10;17.00;;;16.50;;
1957;SDS011;979;51.076;13.748;2023-06-26T06:18:39;16.60;;;16.10;;
1957;SDS011;979;51.076;13.748;2023-06-26T06:21:08;18.67;;;18.13;;
1957;SDS011;979;51.076;13.748;2023-06-26T06:23:36;16.30;;;15.80;;
1957;SDS011;979;51.076;13.748;2023-06-26T06:26:08;19.10;;;18.33;;
1957;SDS011;979;51.076;13.748;2023-06-26T06:28:36;16.60;;;16.10;;
1957;SDS011;979;51.076;13.748;2023-06-26T06:35:13;15.70;;;15.30;;
1957;SDS011;979;51.076;13.748;2023-06-26T06:38:56;16.17;;;15.73;;
1957;SDS011;979;51.076;13.748;2023-06-26T07:03:45;15.60;;;15.20;;
1957;SDS011;979;51.076;13.748;2023-06-26T07:06:48;15.67;;;15.27;;
1957;SDS011;979;51.076;13.748;2023-06-26T07:09:47;15.37;;;14.97;;
1957;SDS011;979;51.076;13.748;2023-06-26T07:12:21;16.00;;;15.60;;
1957;SDS011;979;51.076;13.748;2023-06-26T07:15:22;16.30;;;15.87;;
1957;SDS011;979;51.076;13.748;2023-06-26T07:18:22;15.93;;;15.53;;
1957;SDS011;979;51.076;13.748;2023-06-26T07:20:52;16.33;;;15.93;;
1957;SDS011;979;51.076;13.748;2023-06-26T07:23:51;16.30;;;15.90;;
1957;SDS011;979;51.076;13.748;2023-06-26T07:26:53;16.60;;;16.20;;
1957;SDS011;979;51.076;13.748;2023-06-26T07:29:47;16.43;;;16.00;;
1957;SDS011;979;51.076;13.748;2023-06-26T07:32:48;16.50;;;16.10;;
1957;SDS011;979;51.076;13.748;2023-06-26T07:39:07;16.20;;;15.80;;
1957;SDS011;979;51.076;13.748;2023-06-26T07:42:01;16.10;;;15.70;;
1957;SDS011;979;51.076;13.748;2023-06-26T07:45:01;16.50;;;16.10;;
1957;SDS011;979;51.076;13.748;2023-06-26T07:47:53;16.73;;;16.30;;
1957;SDS011;979;51.076;13.748;2023-06-26T07:50:38;19.50;;;18.90;;
1957;SDS011;979;51.076;13.748;2023-06-26T07:53:25;16.50;;;16.10;;
1957;SDS011;979;51.076;13.748;2023-06-26T07:56:23;16.70;;;16.20;;
1957;SDS011;979;51.076;13.748;2023-06-26T07:59:19;16.70;;;16.20;;
1957;SDS011;979;51.076;13.748;2023-06-26T08:16:19;16.90;;;16.40;;
1957;SDS011;979;51.076;13.748;2023-06-26T08:18:49;16.90;;;16.40;;
1957;SDS011;979;51.076;13.748;2023-06-26T08:21:45;16.73;;;16.23;;
1957;SDS011;979;51.076;13.748;2023-06-26T08:24:29;17.20;;;16.70;;
1957;SDS011;979;51.076;13.748;2023-06-26T08:27:26;17.43;;;16.93;;
1957;SDS011;979;51.076;13.748;2023-06-26T08:30:00;16.27;;;15.87;;
1957;SDS011;979;51.076;13.748;2023-06-26T08:32:31;17.77;;;17.27;;
1957;SDS011;979;51.076;13.748;2023-06-26T08:35:00;17.10;;;16.60;;
1957;SDS011;979;51.076;13.748;2023-06-26T08:37:32;17.10;;;16.60;;
1957;SDS011;979;51.076;13.748;2023-06-26T08:40:28;17.70;;;17.20;;
1957;SDS011;979;51.076;13.748;2023-06-26T08:43:12;17.30;;;16.80;;
1957;SDS011;979;51.076;13.748;2023-06-26T08:46:08;17.47;;;16.97;;
1957;SDS011;979;51.076;13.748;2023-06-26T09:09:49;17.10;;;16.60;;
1957;SDS011;979;51.076;13.748;2023-06-26T09:12:23;16.90;;;16.40;;
1957;SDS011;979;51.076;13.748;2023-06-26T09:15:36;15.90;;;15.50;;
1957;SDS011;979;51.076;13.748;2023-06-26T09:18:38;16.70;;;16.20;;
1957;SDS011;979;51.076;13.748;2023-06-26T09:21:39;16.77;;;16.27;;
1957;SDS011;979;51.076;13.748;2023-06-26T09:39:04;15.83;;;15.43;;
1957;SDS011;979;51.076;13.748;2023-06-26T09:42:03;17.13;;;16.63;;
1957;SDS011;979;51.076;13.748;2023-06-26T09:45:19;16.53;;;16.10;;
1957;SDS011;979;51.076;13.748;2023-06-26T09:48:20;16.80;;;16.30;;
1957;SDS011;979;51.076;13.748;2023-06-26T09:51:17;16.83;;;16.43;;
1957;SDS011;979;51.076;13.748;2023-06-26T10:29:50;15.70;;;15.30;;
1957;SDS011;979;51.076;13.748;2023-06-26T10:32:49;17.20;;;16.70;;
1957;SDS011;979;51.076;13.748;2023-06-26T10:35:47;16.10;;;15.70;;
1957;SDS011;979;51.076;13.748;2023-06-26T10:38:53;16.07;;;15.60;;
1957;SDS011;979;51.076;13.748;2023-06-26T10:45:54;16.80;;;16.30;;
1957;SDS011;979;51.076;13.748;2023-06-26T10:48:57;17.40;;;16.90;;
1957;SDS011;979;51.076;13.748;2023-06-26T10:52:05;15.93;;;15.53;;
1957;SDS011;979;51.076;13.748;2023-06-26T10:55:17;16.80;;;16.30;;
1957;SDS011;979;51.076;13.748;2023-06-26T10:58:48;16.53;;;16.03;;
1957;SDS011;979;51.076;13.748;2023-06-26T11:01:58;16.80;;;16.30;;
1957;SDS011;979;51.076;13.748;2023-06-26T11:04:46;16.10;;;15.70;;
1957;SDS011;979;51.076;13.748;2023-06-26T11:10:59;15.97;;;15.57;;
1957;SDS011;979;51.076;13.748;2023-06-26T11:13:28;17.27;;;16.77;;
1957;SDS011;979;51.076;13.748;2023-06-26T11:16:02;18.10;;;17.60;;
1957;SDS011;979;51.076;13.748;2023-06-26T11:18:34;17.07;;;16.57;;
1957;SDS011;979;51.076;13.748;2023-06-26T11:21:06;17.10;;;16.60;;
1957;SDS011;979;51.076;13.748;2023-06-26T11:23:38;16.60;;;16.20;;
1957;SDS011;979;51.076;13.748;2023-06-26T11:26:15;17.00;;;16.50;;
1957;SDS011;979;51.076;13.748;2023-06-26T11:28:48;17.80;;;17.20;;
1957;SDS011;979;51.076;13.748;2023-06-26T11:31:24;17.00;;;16.50;;
1957;SDS011;979;51.076;13.748;2023-06-26T11:33:55;19.33;;;18.63;;
1957;SDS011;979;51.076;13.748;2023-06-26T11:36:25;17.63;;;17.13;;
1957;SDS011;979;51.076;13.748;2023-06-26T11:38:54;19.07;;;18.47;;
1957;SDS011;979;51.076;13.748;2023-06-26T11:41:30;17.80;;;17.30;;
1957;SDS011;979;51.076;13.748;2023-06-26T11:44:28;17.80;;;17.30;;
1957;SDS011;979;51.076;13.748;2023-06-26T11:47:26;17.90;;;17.40;;
1957;SDS011;979;51.076;13.748;2023-06-26T11:57:41;17.90;;;17.40;;
1957;SDS011;979;51.076;13.748;2023-06-26T12:00:40;17.00;;;16.60;;
1957;SDS011;979;51.076;13.748;2023-06-26T12:03:37;19.00;;;18.40;;
1957;SDS011;979;51.076;13.748;2023-06-26T12:06:34;16.97;;;16.47;;
1957;SDS011;979;51.076;13.748;2023-06-26T12:09:31;19.17;;;18.57;;
1957;SDS011;979;51.076;13.748;2023-06-26T12:12:31;17.40;;;16.90;;
1957;SDS011;979;51.076;13.748;2023-06-26T12:57:36;17.50;;;17.00;;
1957;SDS011;979;51.076;13.748;2023-06-26T13:00:33;17.07;;;16.67;;
1957;SDS011;979;51.076;13.748;2023-06-26T13:03:18;16.90;;;16.40;;
1957;SDS011;979;51.076;13.748;2023-06-26T13:06:25;16.63;;;16.23;;
1957;SDS011;979;51.076;13.748;2023-06-26T13:09:24;17.03;;;16.60;;
1957;SDS011;979;51.076;13.748;2023-06-26T13:22:56;15.60;;;15.20;;
1957;SDS011;979;51.076;13.748;2023-06-26T13:25:53;16.20;;;15.80;;
1957;SDS011;979;51.076;13.748;2023-06-26T13:28:52;15.30;;;14.93;;
1957;SDS011;979;51.076;13.748;2023-06-26T13:31:48;15.82;;;15.43;;
1957;SDS011;979;51.076;13.748;2023-06-26T13:35:04;16.08;;;15.68;;
1957;SDS011;979;51.076;13.748;2023-06-26T14:43:40;17.47;;;17.07;;
1957;SDS011;979;51.076;13.748;2023-06-26T14:46:17;15.77;;;15.37;;
1957;SDS011;979;51.076;13.748;2023-06-26T14:48:46;15.13;;;14.83;;
1957;SDS011;979;51.076;13.748;2023-06-26T14:51:15;14.77;;;14.47;;
1957;SDS011;979;51.076;13.748;2023-06-26T14:53:43;15.77;;;15.37;;
1957;SDS011;979;51.076;13.748;2023-06-26T14:56:14;15.97;;;15.57;;
1957;SDS011;979;51.076;13.748;2023-06-26T14:58:44;15.60;;;15.20;;
1957;SDS011;979;51.076;13.748;2023-06-26T15:01:13;15.65;;;15.25;;
1957;SDS011;979;51.076;13.748;2023-06-26T15:03:42;15.43;;;15.02;;
1957;SDS011;979;51.076;13.748;2023-06-26T15:06:11;15.65;;;15.25;;
1957;SDS011;979;51.076;13.748;2023-06-26T15:08:43;15.67;;;15.27;;
1957;SDS011;979;51.076;13.748;2023-06-26T15:11:12;15.13;;;14.77;;
1957;SDS011;979;51.076;13.748;2023-06-26T15:13:44;16.15;;;15.70;;
1957;SDS011;979;51.076;13.748;2023-06-26T15:16:12;16.30;;;15.80;;
1957;SDS011;979;51.076;13.748;2023-06-26T15:18:41;14.88;;;14.48;;
1957;SDS011;979;51.076;13.748;2023-06-26T15:21:11;15.87;;;15.47;;
1957;SDS011;979;51.076;13.748;2023-06-26T15:23:39;16.53;;;15.83;;
1957;SDS011;979;51.076;13.748;2023-06-26T15:26:08;15.37;;;14.97;;
1957;SDS011;979;51.076;13.748;2023-06-26T15:28:38;15.70;;;15.30;;
1957;SDS011;979;51.076;13.748;2023-06-26T15:31:09;15.30;;;14.90;;
1957;SDS011;979;51.076;13.748;2023-06-26T15:33:38;17.60;;;17.10;;
1957;SDS011;979;51.076;13.748;2023-06-26T15:36:06;14.50;;;14.20;;
1957;SDS011;979;51.076;13.748;2023-06-26T15:38:35;14.47;;;14.17;;
1957;SDS011;979;51.076;13.748;2023-06-26T15:41:03;14.50;;;14.20;;
1957;SDS011;979;51.076;13.748;2023-06-26T15:43:32;16.27;;;15.67;;
1957;SDS011;979;51.076;13.748;2023-06-26T15:46:03;14.93;;;14.53;;
1957;SDS011;979;51.076;13.748;2023-06-26T15:48:39;15.03;;;14.63;;
1957;SDS011;979;51.076;13.748;2023-06-26T15:51:09;14.90;;;14.50;;
1957;SDS011;979;51.076;13.748;2023-06-26T15:53:42;15.30;;;14.90;;
1957;SDS011;979;51.076;13.748;2023-06-26T15:56:15;15.20;;;14.80;;
1957;SDS011;979;51.076;13.748;2023-06-26T15:58:44;15.00;;;14.60;;
1957;SDS011;979;51.076;13.748;2023-06-26T16:01:15;14.57;;;14.20;;
1957;SDS011;979;51.076;13.748;2023-06-26T16:03:45;14.27;;;13.97;;
1957;SDS011;979;51.076;13.748;2023-06-26T16:06:14;14.30;;;13.90;;
1957;SDS011;979;51.076;13.748;2023-06-26T16:08:45;13.93;;;13.63;;
1957;SDS011;979;51.076;13.748;2023-06-26T16:11:15;14.13;;;13.83;;
1957;SDS011;979;51.076;13.748;2023-06-26T16:13:44;14.23;;;13.90;;
1957;SDS011;979;51.076;13.748;2023-06-26T16:16:13;16.97;;;16.37;;
1957;SDS011;979;51.076;13.748;2023-06-26T16:18:51;15.67;;;15.27;;
1957;SDS011;979;51.076;13.748;2023-06-26T16:21:19;16.73;;;16.27;;
1957;SDS011;979;51.076;13.748;2023-06-26T16:23:48;18.27;;;17.20;;
1957;SDS011;979;51.076;13.748;2023-06-26T16:26:17;16.80;;;16.30;;
1957;SDS011;979;51.076;13.748;2023-06-26T16:28:46;18.53;;;17.93;;
1957;SDS011;979;51.076;13.748;2023-06-26T16:31:16;17.63;;;16.93;;
1957;SDS011;979;51.076;13.748;2023-06-26T16:33:45;19.50;;;18.57;;
1957;SDS011;979;51.076;13.748;2023-06-26T16:36:14;20.93;;;20.23;;
1957;SDS011;979;51.076;13.748;2023-06-26T16:38:45;40.50;;;38.40;;
1957;SDS011;979;51.076;13.748;2023-06-26T16:41:16;0.93;;;0.87;;
1957;SDS011;979;51.076;13.748;2023-06-26T16:43:45;2.57;;;2.40;;
1957;SDS011;979;51.076;13.748;2023-06-26T16:46:14;1.13;;;1.03;;
1957;SDS011;979;51.076;13.748;2023-06-26T16:48:43;0.77;;;0.77;;
1957;SDS011;979;51.076;13.748;2023-06-26T16:51:28;0.60;;;0.60;;
1957;SDS011;979;51.076;13.748;2023-06-26T16:53:56;1.00;;;1.00;;
1957;SDS011;979;51.076;13.748;2023-06-26T16:59:26;0.60;;;0.60;;
1957;SDS011;979;51.076;13.748;2023-06-26T17:01:55;1.00;;;1.00;;
1957;SDS011;979;51.076;13.748;2023-06-26T17:04:27;0.90;;;0.90;;
1957;SDS011;979;51.076;13.748;2023-06-26T17:06:59;1.47;;;1.00;;
1957;SDS011;979;51.076;13.748;2023-06-26T17:09:28;11.73;;;10.20;;
1957;SDS011;979;51.076;13.748;2023-06-26T17:11:58;10.80;;;9.80;;
1957;SDS011;979;51.076;13.748;2023-06-26T17:14:26;12.50;;;11.30;;
1957;SDS011;979;51.076;13.748;2023-06-26T17:16:55;13.83;;;12.40;;
1957;SDS011;979;51.076;13.748;2023-06-26T17:19:25;14.00;;;12.80;;
1957;SDS011;979;51.076;13.748;2023-06-26T17:21:53;14.17;;;13.00;;
1957;SDS011;979;51.076;13.748;2023-06-26T17:24:25;15.30;;;13.77;;
1957;SDS011;979;51.076;13.748;2023-06-26T17:26:55;16.10;;;14.50;;
1957;SDS011;979;51.076;13.748;2023-06-26T17:29:37;16.97;;;15.50;;
1957;SDS011;979;51.076;13.748;2023-06-26T17:32:07;15.93;;;14.53;;
1957;SDS011;979;51.076;13.748;2023-06-26T17:34:44;17.80;;;16.00;;
1957;SDS011;979;51.076;13.748;2023-06-26T17:37:13;17.23;;;15.43;;
1957;SDS011;979;51.076;13.748;2023-06-26T17:40:01;17.73;;;16.00;;
1957;SDS011;979;51.076;13.748;2023-06-26T17:42:36;16.70;;;15.20;;
1957;SDS011;979;51.076;13.748;2023-06-26T17:45:16;16.60;;;15.20;;
1957;SDS011;979;51.076;13.748;2023-06-26T17:47:45;16.57;;;14.87;;
1957;SDS011;979;51.076;13.748;2023-06-26T17:50:14;17.00;;;15.60;;
1957;SDS011;979;51.076;13.748;2023-06-26T17:52:43;16.03;;;14.80;;
1957;SDS011;979;51.076;13.748;2023-06-26T17:55:13;20.90;;;16.13;;
1957;SDS011;979;51.076;13.748;2023-06-26T17:57:43;15.90;;;14.50;;
1957;SDS011;979;51.076;13.748;2023-06-26T18:00:16;14.63;;;13.53;;
1957;SDS011;979;51.076;13.748;2023-06-26T18:05:32;16.07;;;14.47;;
1957;SDS011;979;51.076;13.748;2023-06-26T18:08:01;14.53;;;13.33;;
1957;SDS011;979;51.076;13.748;2023-06-26T18:10:32;14.90;;;13.60;;
1957;SDS011;979;51.076;13.748;2023-06-26T18:13:16;15.30;;;14.00;;
1957;SDS011;979;51.076;13.748;2023-06-26T18:15:49;16.10;;;14.40;;
1957;SDS011;979;51.076;13.748;2023-06-26T18:21:43;15.90;;;14.40;;
1957;SDS011;979;51.076;13.748;2023-06-26T18:24:13;15.63;;;14.13;;
1957;SDS011;979;51.076;13.748;2023-06-26T18:26:43;14.93;;;13.73;;
1957;SDS011;979;51.076;13.748;2023-06-26T18:29:11;16.23;;;14.80;;
1957;SDS011;979;51.076;13.748;2023-06-26T18:31:40;18.50;;;16.50;;
1957;SDS011;979;51.076;13.748;2023-06-26T18:34:32;16.37;;;14.70;;
1957;SDS011;979;51.076;13.748;2023-06-26T18:37:00;17.20;;;15.60;;
1957;SDS011;979;51.076;13.748;2023-06-26T18:39:30;14.20;;;12.90;;
1957;SDS011;979;51.076;13.748;2023-06-26T18:42:04;14.20;;;12.77;;
1957;SDS011;979;51.076;13.748;2023-06-26T19:17:03;18.63;;;14.37;;
1957;SDS011;979;51.076;13.748;2023-06-26T19:19:31;14.60;;;13.30;;
1957;SDS011;979;51.076;13.748;2023-06-26T19:22:00;15.93;;;14.53;;
1957;SDS011;979;51.076;13.748;2023-06-26T19:24:29;16.07;;;14.37;;
1957;SDS011;979;51.076;13.748;2023-06-26T19:26:58;15.60;;;14.30;;
1957;SDS011;979;51.076;13.748;2023-06-26T19:29:26;17.07;;;15.47;;
1957;SDS011;979;51.076;13.748;2023-06-26T19:31:54;14.53;;;13.00;;
1957;SDS011;979;51.076;13.748;2023-06-26T19:38:23;15.47;;;13.90;;
1957;SDS011;979;51.076;13.748;2023-06-26T19:40:51;15.80;;;14.17;;
1957;SDS011;979;51.076;13.748;2023-06-26T19:43:20;15.97;;;14.57;;
1957;SDS011;979;51.076;13.748;2023-06-26T19:45:49;16.83;;;15.33;;
1957;SDS011;979;51.076;13.748;2023-06-26T19:48:19;17.10;;;15.47;;
1957;SDS011;979;51.076;13.748;2023-06-26T19:50:48;16.87;;;15.03;;
1957;SDS011;979;51.076;13.748;2023-06-26T19:53:17;16.27;;;14.70;;
1957;SDS011;979;51.076;13.748;2023-06-26T19:55:48;19.77;;;17.77;;
1957;SDS011;979;51.076;13.748;2023-06-26T19:58:19;15.07;;;13.47;;
1957;SDS011;979;51.076;13.748;2023-06-26T20:01:02;13.80;;;12.60;;
1957;SDS011;979;51.076;13.748;2023-06-26T20:03:31;14.07;;;12.73;;
1957;SDS011;979;51.076;13.748;2023-06-26T20:06:02;13.30;;;12.10;;
1957;SDS011;979;51.076;13.748;2023-06-26T20:08:30;13.53;;;12.00;;
1957;SDS011;979;51.076;13.748;2023-06-26T20:11:03;13.97;;;12.77;;
1957;SDS011;979;51.076;13.748;2023-06-26T20:13:38;13.23;;;11.83;;
1957;SDS011;979;51.076;13.748;2023-06-26T20:16:08;14.80;;;13.37;;
1957;SDS011;979;51.076;13.748;2023-06-26T20:18:40;16.40;;;14.90;;
1957;SDS011;979;51.076;13.748;2023-06-26T20:21:29;14.93;;;13.67;;
1957;SDS011;979;51.076;13.748;2023-06-26T20:23:58;14.30;;;13.00;;
1957;SDS011;979;51.076;13.748;2023-06-26T20:26:29;13.83;;;12.70;;
1957;SDS011;979;51.076;13.748;2023-06-26T20:28:58;17.37;;;15.67;;
1957;SDS011;979;51.076;13.748;2023-06-26T20:31:26;15.47;;;13.90;;